Time;durP1;ratioP1;P1;durP2;ratioP2;P2;SDS_P1;SDS_P2;PMS_P1;PMS_P2;Temp;Humidity;BMP_temperature;BMP_pressure;BME280_temperature;BME280_humidity;BME280_pressure;Samples;Min_cycle;Max_cycle;Signal;HPM_P1;HPM_P2
2021/12/26 00:02:19;;;;;;;14.30;10.88;;;;;;;;;;5135303;28;20025;-83
2021/12/26 00:04:45;;;;;;;18.10;12.65;;;;;;;;;;5135029;28;20400;-84
2021/12/26 00:07:11;;;;;;;18.70;12.05;;;;;;;;;;5116624;28;20027;-83
2021/12/26 00:09:37;;;;;;;21.50;13.00;;;;;;;;;;5117124;28;20051;-84
2021/12/26 00:12:03;;;;;;;19.08;11.77;;;;;;;;;;5135002;28;20420;-83
2021/12/26 00:14:29;;;;;;;10.10;8.02;;;;;;;;;;5116431;28;20059;-83
2021/12/26 00:16:55;;;;;;;8.40;6.88;;;;;;;;;;5135295;28;20031;-84
2021/12/26 00:19:21;;;;;;;10.52;6.85;;;;;;;;;;5135087;28;20068;-84
2021/12/26 00:21:48;;;;;;;11.82;7.53;;;;;;;;;;5134985;28;20031;-83
2021/12/26 00:24:14;;;;;;;26.25;10.63;;;;;;;;;;5135010;28;20031;-84
2021/12/26 00:26:40;;;;;;;25.48;10.07;;;;;;;;;;5134750;28;20408;-83
2021/12/26 00:29:06;;;;;;;15.57;8.20;;;;;;;;;;5134646;28;20028;-83
2021/12/26 00:31:32;;;;;;;27.60;10.40;;;;;;;;;;5134551;28;20026;-83
2021/12/26 00:33:58;;;;;;;18.92;8.88;;;;;;;;;;5134965;28;20100;-84
2021/12/26 00:36:25;;;;;;;32.20;11.10;;;;;;;;;;5134840;28;20027;-84
2021/12/26 00:38:51;;;;;;;22.08;12.43;;;;;;;;;;5116529;28;20023;-84
2021/12/26 00:41:39;;;;;;;11.77;7.45;;;;;;;;;;5134681;28;20381;-85
2021/12/26 00:44:05;;;;;;;10.10;7.25;;;;;;;;;;5134859;28;20023;-86
2021/12/26 00:46:31;;;;;;;11.82;7.15;;;;;;;;;;5134879;28;20023;-85
2021/12/26 00:48:57;;;;;;;11.15;7.45;;;;;;;;;;5134730;28;20426;-85
2021/12/26 00:51:23;;;;;;;10.75;7.28;;;;;;;;;;5132732;28;20078;-84
2021/12/26 00:53:50;;;;;;;8.88;6.60;;;;;;;;;;5120836;28;20016;-86
2021/12/26 00:56:17;;;;;;;11.18;6.85;;;;;;;;;;5119907;28;20020;-85
2021/12/26 00:58:43;;;;;;;14.13;7.50;;;;;;;;;;5120817;28;20027;-85
2021/12/26 01:01:11;;;;;;;16.08;7.60;;;;;;;;;;5119590;28;20031;-85
2021/12/26 01:03:38;;;;;;;9.98;5.88;;;;;;;;;;5120640;28;20028;-85
2021/12/26 01:06:04;;;;;;;7.78;6.00;;;;;;;;;;5120490;28;20020;-85
2021/12/26 01:08:36;;;;;;;11.05;6.72;;;;;;;;;;5120541;28;20035;-84
2021/12/26 01:11:06;;;;;;;10.93;7.13;;;;;;;;;;5120450;28;20423;-84
2021/12/26 01:13:38;;;;;;;7.93;5.88;;;;;;;;;;5120526;28;20457;-85
2021/12/26 01:16:06;;;;;;;8.82;6.18;;;;;;;;;;5120921;28;20027;-85
2021/12/26 01:18:35;;;;;;;8.68;6.00;;;;;;;;;;5120494;28;20325;-85
2021/12/26 01:21:15;;;;;;;10.55;6.45;;;;;;;;;;5120275;28;20032;-85
2021/12/26 01:23:41;;;;;;;10.07;6.45;;;;;;;;;;5120143;28;20425;-84
2021/12/26 01:26:45;;;;;;;9.18;5.88;;;;;;;;;;5119264;28;20042;-85
2021/12/26 01:29:11;;;;;;;11.93;7.22;;;;;;;;;;5120012;28;20020;-85
2021/12/26 01:31:37;;;;;;;13.55;7.65;;;;;;;;;;5118666;28;20114;-85
2021/12/26 01:34:04;;;;;;;9.27;5.78;;;;;;;;;;5120102;28;20024;-84
2021/12/26 01:36:31;;;;;;;13.80;7.60;;;;;;;;;;5119889;28;20023;-86
2021/12/26 01:38:59;;;;;;;11.40;6.25;;;;;;;;;;5118790;28;20020;-85
2021/12/26 01:41:26;;;;;;;9.88;5.30;;;;;;;;;;5118928;28;20046;-85
2021/12/26 01:43:56;;;;;;;6.80;5.25;;;;;;;;;;5120143;28;20027;-85
2021/12/26 01:46:22;;;;;;;10.48;7.05;;;;;;;;;;5120106;28;20062;-85
2021/12/26 01:48:48;;;;;;;10.07;6.40;;;;;;;;;;5118896;28;20329;-85
2021/12/26 01:51:15;;;;;;;7.32;5.40;;;;;;;;;;5119268;28;20051;-85
2021/12/26 01:53:41;;;;;;;7.82;4.97;;;;;;;;;;5119831;28;20023;-83
2021/12/26 01:56:09;;;;;;;7.05;5.07;;;;;;;;;;5119816;28;20026;-83
2021/12/26 01:58:36;;;;;;;5.18;3.90;;;;;;;;;;5119683;28;20024;-84
2021/12/26 02:01:07;;;;;;;5.30;3.90;;;;;;;;;;5119482;28;20098;-83
2021/12/26 02:03:33;;;;;;;7.07;4.15;;;;;;;;;;5118244;28;20047;-84
2021/12/26 02:05:59;;;;;;;5.65;3.67;;;;;;;;;;5119249;28;20339;-84
2021/12/26 02:08:25;;;;;;;5.43;3.15;;;;;;;;;;5118018;28;20325;-84
2021/12/26 02:10:51;;;;;;;7.15;3.88;;;;;;;;;;5119163;28;20034;-84
2021/12/26 02:13:17;;;;;;;8.07;4.22;;;;;;;;;;5119018;28;20107;-83
2021/12/26 02:15:43;;;;;;;5.32;3.00;;;;;;;;;;5119044;28;20028;-83
2021/12/26 02:18:10;;;;;;;6.75;4.15;;;;;;;;;;5119264;28;20039;-84
2021/12/26 02:20:48;;;;;;;5.93;4.25;;;;;;;;;;5118759;28;20035;-84
2021/12/26 02:23:25;;;;;;;5.80;3.90;;;;;;;;;;5119059;28;20102;-84
2021/12/26 02:28:25;;;;;;;7.85;4.60;;;;;;;;;;5118986;28;20039;-84
2021/12/26 02:30:52;;;;;;;7.85;4.53;;;;;;;;;;5118774;28;20023;-84
2021/12/26 02:33:18;;;;;;;7.00;4.05;;;;;;;;;;5118693;28;20401;-84
2021/12/26 02:35:45;;;;;;;7.07;3.97;;;;;;;;;;5117717;28;20064;-84
2021/12/26 02:38:12;;;;;;;5.60;3.20;;;;;;;;;;5118743;28;20016;-84
2021/12/26 02:40:40;;;;;;;5.28;3.30;;;;;;;;;;5118867;28;20053;-85
2021/12/26 02:46:10;;;;;;;7.40;3.58;;;;;;;;;;5118898;28;20153;-84
2021/12/26 02:48:36;;;;;;;4.43;2.85;;;;;;;;;;5118461;28;20488;-84
2021/12/26 02:51:03;;;;;;;5.55;2.88;;;;;;;;;;5117148;28;20052;-84
2021/12/26 02:53:29;;;;;;;5.45;3.10;;;;;;;;;;5117286;28;20026;-85
2021/12/26 02:55:56;;;;;;;4.80;2.72;;;;;;;;;;5118403;28;20458;-85
2021/12/26 02:58:22;;;;;;;7.18;3.95;;;;;;;;;;5118373;28;20059;-85
2021/12/26 03:00:57;;;;;;;7.13;3.28;;;;;;;;;;5118445;28;20401;-85
2021/12/26 03:03:24;;;;;;;6.22;3.97;;;;;;;;;;5118604;28;20024;-85
2021/12/26 03:06:01;;;;;;;8.23;4.70;;;;;;;;;;5117241;28;20027;-85
2021/12/26 03:08:27;;;;;;;7.22;4.32;;;;;;;;;;5117477;28;20032;-85
2021/12/26 03:10:54;;;;;;;8.52;5.72;;;;;;;;;;5118079;28;20069;-85
2021/12/26 03:13:20;;;;;;;5.70;3.70;;;;;;;;;;5118517;28;20012;-85
2021/12/26 03:15:47;;;;;;;5.55;3.40;;;;;;;;;;5118254;28;20020;-85
2021/12/26 03:18:13;;;;;;;5.22;3.28;;;;;;;;;;5117140;28;20027;-85
2021/12/26 03:20:42;;;;;;;5.95;3.15;;;;;;;;;;5118204;28;20063;-85
2021/12/26 03:23:09;;;;;;;8.43;4.20;;;;;;;;;;5118342;28;20313;-85
2021/12/26 03:25:35;;;;;;;10.70;5.75;;;;;;;;;;5117953;28;20358;-85
2021/12/26 03:28:02;;;;;;;10.68;5.43;;;;;;;;;;5118173;28;20020;-86
2021/12/26 03:30:30;;;;;;;10.38;4.63;;;;;;;;;;5117142;28;20024;-85
2021/12/26 03:32:58;;;;;;;10.40;5.38;;;;;;;;;;5118305;28;20408;-86
2021/12/26 03:35:26;;;;;;;7.57;4.18;;;;;;;;;;5116805;28;20020;-86
2021/12/26 03:37:52;;;;;;;6.57;3.90;;;;;;;;;;5116951;28;20061;-86
2021/12/26 03:40:18;;;;;;;5.20;3.35;;;;;;;;;;5116707;28;20039;-85
2021/12/26 03:42:44;;;;;;;3.78;2.90;;;;;;;;;;5117995;28;20055;-85
2021/12/26 03:45:11;;;;;;;5.47;2.83;;;;;;;;;;5117853;28;20023;-85
2021/12/26 03:47:39;;;;;;;4.18;3.17;;;;;;;;;;5117793;28;20419;-84
2021/12/26 03:50:06;;;;;;;6.53;3.17;;;;;;;;;;5116605;28;20077;-85
2021/12/26 03:52:32;;;;;;;3.40;2.63;;;;;;;;;;5117871;28;20111;-85
2021/12/26 03:54:58;;;;;;;4.07;2.50;;;;;;;;;;5118124;28;20016;-85
2021/12/26 03:57:24;;;;;;;4.60;2.97;;;;;;;;;;5117945;28;20024;-84
2021/12/26 03:59:50;;;;;;;4.82;2.60;;;;;;;;;;5117809;28;20019;-85
2021/12/26 04:02:16;;;;;;;5.07;3.10;;;;;;;;;;5117633;28;20081;-85
2021/12/26 04:04:43;;;;;;;3.05;2.45;;;;;;;;;;5116648;28;20027;-85
2021/12/26 04:07:10;;;;;;;3.83;3.08;;;;;;;;;;5117939;28;20016;-85
2021/12/26 04:09:36;;;;;;;5.25;3.10;;;;;;;;;;5117643;28;20020;-85
2021/12/26 04:12:03;;;;;;;4.80;3.53;;;;;;;;;;5117494;28;20027;-82
2021/12/26 04:14:29;;;;;;;5.80;3.72;;;;;;;;;;5117848;28;20040;-83
2021/12/26 04:16:55;;;;;;;5.30;3.60;;;;;;;;;;5117518;28;20060;-82
2021/12/26 04:19:21;;;;;;;5.03;3.90;;;;;;;;;;5117736;28;20027;-82
2021/12/26 04:21:47;;;;;;;5.10;3.97;;;;;;;;;;5117263;28;20030;-86
2021/12/26 04:24:13;;;;;;;5.10;3.78;;;;;;;;;;5117483;28;20035;-86
2021/12/26 04:26:39;;;;;;;5.13;3.45;;;;;;;;;;5116211;28;20123;-86
2021/12/26 04:29:06;;;;;;;4.55;3.85;;;;;;;;;;5121432;28;20020;-85
2021/12/26 04:31:32;;;;;;;4.68;3.17;;;;;;;;;;5121662;28;20024;-86
2021/12/26 04:33:58;;;;;;;4.10;3.30;;;;;;;;;;5121395;28;20016;-85
2021/12/26 04:36:24;;;;;;;5.13;3.38;;;;;;;;;;5121490;28;20019;-85
2021/12/26 04:38:50;;;;;;;4.28;3.30;;;;;;;;;;5121534;28;20020;-85
2021/12/26 04:41:16;;;;;;;4.80;3.85;;;;;;;;;;5121183;28;20077;-82
2021/12/26 04:43:42;;;;;;;3.88;3.47;;;;;;;;;;5120983;28;20055;-83
2021/12/26 04:46:09;;;;;;;6.32;3.85;;;;;;;;;;5121373;28;20072;-84
2021/12/26 04:48:36;;;;;;;5.70;3.90;;;;;;;;;;5121275;28;20403;-83
2021/12/26 04:51:03;;;;;;;7.10;4.85;;;;;;;;;;5120590;28;20071;-83
2021/12/26 04:53:29;;;;;;;10.32;6.40;;;;;;;;;;5119760;28;20031;-83
2021/12/26 04:55:55;;;;;;;17.20;9.20;;;;;;;;;;5121136;28;20088;-83
2021/12/26 04:58:21;;;;;;;12.25;7.38;;;;;;;;;;5120674;28;20020;-86
2021/12/26 05:00:47;;;;;;;14.60;8.25;;;;;;;;;;5120726;28;20028;-86
2021/12/26 05:03:14;;;;;;;18.23;9.25;;;;;;;;;;5121072;28;20027;-86
2021/12/26 05:05:40;;;;;;;15.75;7.90;;;;;;;;;;5120733;28;20540;-86
2021/12/26 05:08:07;;;;;;;9.18;6.13;;;;;;;;;;5119404;28;20035;-86
2021/12/26 05:10:33;;;;;;;7.05;5.07;;;;;;;;;;5120793;28;20235;-87
2021/12/26 05:16:03;;;;;;;6.82;4.35;;;;;;;;;;5120641;28;20034;-85
2021/12/26 05:18:29;;;;;;;7.07;4.57;;;;;;;;;;5120496;28;20027;-85
2021/12/26 05:20:56;;;;;;;8.38;4.88;;;;;;;;;;5120529;28;20036;-85
2021/12/26 05:23:22;;;;;;;10.02;5.18;;;;;;;;;;5120370;28;20412;-85
2021/12/26 05:25:48;;;;;;;21.55;9.27;;;;;;;;;;5119007;28;20063;-86
2021/12/26 05:28:34;;;;;;;10.85;5.50;;;;;;;;;;5120485;28;20019;-85
2021/12/26 05:31:00;;;;;;;7.13;5.60;;;;;;;;;;5120140;28;20068;-86
2021/12/26 05:33:26;;;;;;;20.58;12.02;;;;;;;;;;5120155;28;20309;-86
2021/12/26 05:35:52;;;;;;;15.20;9.80;;;;;;;;;;5120304;28;20020;-86
2021/12/26 05:38:18;;;;;;;8.65;5.85;;;;;;;;;;5119905;28;20026;-85
2021/12/26 05:40:44;;;;;;;9.95;6.10;;;;;;;;;;5120041;28;20019;-85
2021/12/26 05:43:29;;;;;;;13.93;9.02;;;;;;;;;;5119881;28;20417;-86
2021/12/26 05:45:55;;;;;;;12.05;9.25;;;;;;;;;;5120467;28;20023;-86
2021/12/26 05:48:21;;;;;;;13.10;10.15;;;;;;;;;;5120030;28;20031;-87
2021/12/26 05:50:48;;;;;;;8.75;6.05;;;;;;;;;;5119585;28;20126;-87
2021/12/26 05:53:14;;;;;;;7.35;5.75;;;;;;;;;;5119699;28;20024;-86
2021/12/26 05:55:40;;;;;;;10.10;6.50;;;;;;;;;;5118431;28;20032;-85
2021/12/26 05:58:06;;;;;;;6.85;4.70;;;;;;;;;;5119744;28;20111;-86
2021/12/26 06:00:32;;;;;;;5.57;4.32;;;;;;;;;;5119731;28;20412;-86
2021/12/26 06:02:58;;;;;;;10.50;7.03;;;;;;;;;;5119944;28;20047;-86
2021/12/26 06:05:24;;;;;;;7.07;5.47;;;;;;;;;;5119560;28;20028;-86
2021/12/26 06:07:50;;;;;;;11.73;7.53;;;;;;;;;;5119861;28;20024;-86
2021/12/26 06:10:16;;;;;;;10.00;7.13;;;;;;;;;;5119664;28;20028;-85
2021/12/26 06:12:42;;;;;;;10.40;5.90;;;;;;;;;;5119401;28;20020;-85
2021/12/26 06:15:08;;;;;;;8.60;6.05;;;;;;;;;;5118319;28;20317;-85
2021/12/26 06:17:35;;;;;;;10.63;6.93;;;;;;;;;;5117937;28;20028;-86
2021/12/26 06:20:01;;;;;;;10.10;6.80;;;;;;;;;;5119523;28;20024;-86
2021/12/26 06:22:27;;;;;;;10.55;6.47;;;;;;;;;;5118243;28;20062;-86
2021/12/26 06:24:53;;;;;;;9.65;5.88;;;;;;;;;;5119263;28;20425;-86
2021/12/26 06:27:39;;;;;;;12.77;8.02;;;;;;;;;;5119521;28;20020;-87
2021/12/26 06:30:06;;;;;;;17.80;9.98;;;;;;;;;;5119005;28;20027;-85
2021/12/26 06:32:32;;;;;;;19.80;10.88;;;;;;;;;;5119176;28;20020;-86
2021/12/26 06:35:00;;;;;;;14.07;9.13;;;;;;;;;;5109727;28;20044;-85
2021/12/26 06:37:27;;;;;;;8.73;5.97;;;;;;;;;;5111523;28;20466;-83
2021/12/26 06:39:53;;;;;;;12.45;8.07;;;;;;;;;;5119354;28;20019;-83
2021/12/26 06:42:19;;;;;;;13.95;8.00;;;;;;;;;;5104826;28;20036;-83
2021/12/26 06:44:45;;;;;;;13.93;8.48;;;;;;;;;;5098547;28;20045;-84
2021/12/26 06:47:11;;;;;;;12.70;7.22;;;;;;;;;;5108127;28;20023;-84
2021/12/26 06:49:37;;;;;;;6.82;5.18;;;;;;;;;;5098982;28;20020;-82
2021/12/26 06:52:04;;;;;;;6.88;5.38;;;;;;;;;;5104015;28;20051;-83
2021/12/26 06:54:30;;;;;;;7.60;5.45;;;;;;;;;;5117955;28;20517;-83
2021/12/26 06:57:24;;;;;;;7.90;5.43;;;;;;;;;;5116612;28;20409;-83
2021/12/26 06:59:50;;;;;;;10.48;7.10;;;;;;;;;;5108959;28;20015;-84
2021/12/26 07:02:16;;;;;;;11.07;7.07;;;;;;;;;;5098263;28;20032;-84
2021/12/26 07:04:42;;;;;;;13.45;8.77;;;;;;;;;;5105051;28;20381;-83
2021/12/26 07:07:09;;;;;;;15.63;9.65;;;;;;;;;;5112239;28;20325;-84
2021/12/26 07:09:35;;;;;;;14.45;9.68;;;;;;;;;;5113257;28;20026;-83
2021/12/26 07:15:05;;;;;;;11.65;8.10;;;;;;;;;;5098112;28;20344;-83
2021/12/26 07:17:31;;;;;;;14.30;10.25;;;;;;;;;;5097483;28;20023;-84
2021/12/26 07:19:57;;;;;;;12.95;9.43;;;;;;;;;;5097953;28;20421;-83
2021/12/26 07:22:23;;;;;;;15.23;10.20;;;;;;;;;;5097052;28;20024;-84
2021/12/26 07:24:49;;;;;;;18.60;11.98;;;;;;;;;;5098104;28;20031;-83
2021/12/26 07:27:16;;;;;;;20.70;11.95;;;;;;;;;;5096612;28;20032;-83
2021/12/26 07:29:42;;;;;;;27.90;17.25;;;;;;;;;;5114691;28;20032;-84
2021/12/26 07:32:08;;;;;;;31.95;18.65;;;;;;;;;;5117507;28;20484;-84
2021/12/26 07:34:34;;;;;;;24.52;15.23;;;;;;;;;;5103766;28;20026;-83
2021/12/26 07:37:01;;;;;;;14.60;10.05;;;;;;;;;;5096349;28;20028;-83
2021/12/26 07:39:27;;;;;;;13.85;9.52;;;;;;;;;;5109844;28;20355;-83
2021/12/26 07:41:53;;;;;;;28.00;10.55;;;;;;;;;;5097718;28;20110;-84
2021/12/26 07:47:23;;;;;;;80.07;22.33;;;;;;;;;;5097782;28;20322;-86
2021/12/26 07:49:50;;;;;;;31.77;13.70;;;;;;;;;;5097442;28;20031;-86
2021/12/26 07:52:20;;;;;;;16.33;10.45;;;;;;;;;;5096040;28;20485;-86
2021/12/26 07:54:46;;;;;;;17.70;10.70;;;;;;;;;;5096408;28;20063;-83
2021/12/26 07:57:25;;;;;;;13.90;9.40;;;;;;;;;;5104340;28;20024;-85
2021/12/26 07:59:51;;;;;;;12.70;9.25;;;;;;;;;;5118063;28;20150;-84
2021/12/26 08:02:19;;;;;;;19.80;11.07;;;;;;;;;;5118553;28;20028;-85
2021/12/26 08:04:45;;;;;;;22.52;10.40;;;;;;;;;;5121901;28;20028;-85
2021/12/26 08:07:12;;;;;;;22.73;10.30;;;;;;;;;;5119740;28;20027;-86
2021/12/26 08:09:38;;;;;;;17.02;10.05;;;;;;;;;;5100468;28;20035;-85
2021/12/26 08:12:04;;;;;;;18.92;10.23;;;;;;;;;;5100365;28;20027;-85
2021/12/26 08:14:49;;;;;;;21.40;10.25;;;;;;;;;;5101675;28;20024;-85
2021/12/26 08:17:15;;;;;;;16.75;9.70;;;;;;;;;;5101456;28;20043;-85
2021/12/26 08:19:41;;;;;;;16.70;8.80;;;;;;;;;;5109395;28;20019;-86
2021/12/26 08:22:07;;;;;;;21.52;10.65;;;;;;;;;;5113952;28;20366;-86
2021/12/26 08:24:33;;;;;;;33.70;13.20;;;;;;;;;;5121670;28;20367;-86
2021/12/26 08:26:59;;;;;;;21.38;11.18;;;;;;;;;;5121886;28;20106;-86
2021/12/26 08:29:25;;;;;;;19.75;11.00;;;;;;;;;;5118244;28;20409;-85
2021/12/26 08:31:54;;;;;;;24.48;13.73;;;;;;;;;;5109931;28;20322;-85
2021/12/26 08:34:22;;;;;;;15.52;9.85;;;;;;;;;;5101210;28;20373;-86
2021/12/26 08:36:49;;;;;;;10.88;6.57;;;;;;;;;;5100878;28;20028;-87
2021/12/26 08:39:15;;;;;;;11.90;7.20;;;;;;;;;;5109581;28;20034;-86
2021/12/26 08:41:42;;;;;;;14.18;9.30;;;;;;;;;;5102196;28;20048;-86
2021/12/26 08:44:45;;;;;;;13.35;9.98;;;;;;;;;;5099363;28;20139;-86
2021/12/26 08:47:11;;;;;;;;;;;;;;;;;;5101101;28;20028;-87
2021/12/26 08:49:37;;;;;;;19.75;11.65;;;;;;;;;;5100877;28;19904;-86
2021/12/26 08:52:05;;;;;;;22.00;13.48;;;;;;;;;;5106310;28;20048;-85
2021/12/26 08:54:33;;;;;;;23.17;13.32;;;;;;;;;;5120275;28;20020;-87
2021/12/26 08:56:59;;;;;;;22.63;13.02;;;;;;;;;;5107020;28;20032;-86
2021/12/26 08:59:29;;;;;;;18.77;10.70;;;;;;;;;;5100357;28;20023;-87
2021/12/26 09:01:56;;;;;;;17.10;10.88;;;;;;;;;;5099454;28;20036;-86
2021/12/26 09:04:22;;;;;;;14.73;10.70;;;;;;;;;;5100863;28;20099;-86
2021/12/26 09:06:48;;;;;;;12.82;8.45;;;;;;;;;;5100038;28;20043;-86
2021/12/26 09:09:14;;;;;;;11.38;7.57;;;;;;;;;;5101840;28;20024;-86
2021/12/26 09:11:40;;;;;;;17.90;12.52;;;;;;;;;;5111486;28;20040;-86
2021/12/26 09:17:10;;;;;;;19.50;11.95;;;;;;;;;;5119174;28;20038;-87
2021/12/26 09:19:36;;;;;;;13.27;8.15;;;;;;;;;;5118582;28;20096;-87
2021/12/26 09:22:04;;;;;;;11.10;7.15;;;;;;;;;;5103339;28;20028;-86
2021/12/26 09:24:31;;;;;;;14.85;9.45;;;;;;;;;;5104211;28;20046;-86
2021/12/26 09:26:57;;;;;;;12.63;7.88;;;;;;;;;;5118996;28;20123;-86
2021/12/26 09:29:24;;;;;;;21.55;11.85;;;;;;;;;;5119749;28;20047;-86
2021/12/26 09:31:51;;;;;;;15.68;8.95;;;;;;;;;;5119708;28;20313;-86
2021/12/26 09:34:18;;;;;;;19.92;11.80;;;;;;;;;;5120257;28;20032;-86
2021/12/26 09:36:44;;;;;;;19.27;11.40;;;;;;;;;;5120072;28;20054;-86
2021/12/26 09:39:10;;;;;;;19.55;11.73;;;;;;;;;;5119149;28;20024;-85
2021/12/26 09:41:37;;;;;;;20.20;11.10;;;;;;;;;;5120014;28;20024;-86
2021/12/26 09:44:04;;;;;;;14.13;7.68;;;;;;;;;;5118250;28;20132;-86
2021/12/26 09:46:31;;;;;;;17.50;8.93;;;;;;;;;;5106705;28;20401;-86
2021/12/26 09:48:57;;;;;;;16.42;9.32;;;;;;;;;;5111139;28;20062;-86
2021/12/26 09:51:23;;;;;;;23.50;12.50;;;;;;;;;;5117855;28;20047;-86
2021/12/26 09:53:50;;;;;;;25.15;13.85;;;;;;;;;;5119846;28;20465;-86
2021/12/26 09:56:16;;;;;;;31.77;17.67;;;;;;;;;;5117818;28;20042;-84
2021/12/26 10:01:47;;;;;;;18.17;10.60;;;;;;;;;;5101193;28;20047;-86
2021/12/26 10:04:18;;;;;;;22.05;11.95;;;;;;;;;;5100233;28;20028;-86
2021/12/26 10:06:44;;;;;;;24.23;12.75;;;;;;;;;;5111922;28;20145;-86
2021/12/26 10:09:11;;;;;;;16.40;9.95;;;;;;;;;;5097685;28;20036;-86
2021/12/26 10:11:39;;;;;;;11.98;7.55;;;;;;;;;;5098919;28;20039;-86
2021/12/26 10:17:10;;;;;;;13.48;9.27;;;;;;;;;;5099869;28;20149;-85
2021/12/26 10:19:37;;;;;;;19.05;9.75;;;;;;;;;;5116622;27;20020;-84
2021/12/26 10:22:04;;;;;;;22.88;11.38;;;;;;;;;;5119324;28;20077;-85
2021/12/26 10:24:32;;;;;;;30.42;15.10;;;;;;;;;;5118403;28;20048;-85
2021/12/26 10:26:58;;;;;;;17.90;10.40;;;;;;;;;;5118575;28;20034;-85
2021/12/26 10:29:30;;;;;;;13.10;7.28;;;;;;;;;;5119021;28;20032;-86
2021/12/26 10:32:18;;;;;;;9.23;6.20;;;;;;;;;;5114035;27;20027;-82
2021/12/26 10:34:46;;;;;;;10.93;6.18;;;;;;;;;;5098895;28;20035;-84
2021/12/26 10:37:13;;;;;;;12.25;7.38;;;;;;;;;;5098655;28;20322;-86
2021/12/26 10:39:41;;;;;;;13.45;7.85;;;;;;;;;;5111618;28;20023;-86
2021/12/26 10:42:09;;;;;;;20.38;11.20;;;;;;;;;;5119154;28;20023;-85
2021/12/26 10:44:54;;;;;;;19.85;12.82;;;;;;;;;;5118701;28;20024;-85
2021/12/26 10:47:24;;;;;;;17.63;9.93;;;;;;;;;;5117709;28;20106;-86
2021/12/26 10:49:58;;;;;;;14.43;8.75;;;;;;;;;;5118549;28;20137;-85
2021/12/26 10:52:26;;;;;;;12.75;7.93;;;;;;;;;;5118274;28;20065;-87
2021/12/26 10:54:57;;;;;;;20.33;11.15;;;;;;;;;;5118769;28;20344;-85
2021/12/26 10:57:25;;;;;;;507.80;302.90;;;;;;;;;;5117678;28;20473;-85
2021/12/26 11:00:15;;;;;;;194.93;105.63;;;;;;;;;;5117618;28;20024;-85
2021/12/26 11:02:43;;;;;;;465.25;244.55;;;;;;;;;;5118818;28;20038;-84
2021/12/26 11:05:09;;;;;;;130.55;68.90;;;;;;;;;;5118963;28;20065;-87
2021/12/26 11:07:56;;;;;;;200.55;97.55;;;;;;;;;;5118844;28;20079;-87
2021/12/26 11:10:22;;;;;;;157.13;64.28;;;;;;;;;;5117083;28;20038;-86
2021/12/26 11:12:50;;;;;;;275.98;110.60;;;;;;;;;;5118341;28;20020;-87
2021/12/26 11:15:17;;;;;;;416.15;185.40;;;;;;;;;;5118321;28;20023;-87
2021/12/26 11:17:45;;;;;;;216.18;94.80;;;;;;;;;;5118474;28;20397;-86
2021/12/26 11:20:30;;;;;;;33.22;18.08;;;;;;;;;;5118790;28;20367;-88
2021/12/26 11:22:57;;;;;;;51.38;25.95;;;;;;;;;;5117385;28;20028;-87
2021/12/26 11:25:23;;;;;;;371.48;179.23;;;;;;;;;;5118618;28;20019;-85
2021/12/26 11:27:50;;;;;;;327.23;159.95;;;;;;;;;;5118168;28;20047;-87
2021/12/26 11:33:20;;;;;;;127.63;65.28;;;;;;;;;;5118270;28;20043;-87
2021/12/26 11:35:47;;;;;;;38.63;22.88;;;;;;;;;;5117976;28;20031;-87
2021/12/26 11:38:18;;;;;;;26.02;16.60;;;;;;;;;;5118483;28;20046;-87
2021/12/26 11:40:44;;;;;;;23.73;14.30;;;;;;;;;;5098682;28;20035;-88
2021/12/26 11:43:41;;;;;;;54.80;26.65;;;;;;;;;;5097710;28;20028;-87
2021/12/26 11:46:25;;;;;;;34.92;17.55;;;;;;;;;;5102905;28;20043;-87
2021/12/26 11:49:12;;;;;;;43.00;20.25;;;;;;;;;;5113582;28;20031;-87
2021/12/26 11:51:48;;;;;;;42.38;19.73;;;;;;;;;;5097349;28;20056;-86
2021/12/26 11:54:14;;;;;;;27.17;14.25;;;;;;;;;;5097612;28;20024;-87
2021/12/26 11:56:43;;;;;;;23.08;11.77;;;;;;;;;;5097562;28;20025;-88
2021/12/26 12:02:13;;;;;;;59.83;24.52;;;;;;;;;;5097917;28;20067;-88
2021/12/26 12:04:39;;;;;;;56.83;23.20;;;;;;;;;;5097547;28;20047;-87
2021/12/26 12:07:06;;;;;;;35.08;15.07;;;;;;;;;;5097412;28;20027;-87
2021/12/26 12:09:34;;;;;;;13.48;8.70;;;;;;;;;;5097726;28;20020;-87
2021/12/26 12:12:10;;;;;;;44.80;17.25;;;;;;;;;;5097400;28;20023;-88
2021/12/26 12:17:39;;;;;;;58.35;23.52;;;;;;;;;;5097750;28;20095;-88
2021/12/26 12:20:15;;;;;;;34.83;15.48;;;;;;;;;;5097378;28;20039;-87
2021/12/26 12:23:00;;;;;;;136.10;40.70;;;;;;;;;;5096610;28;20020;-87
2021/12/26 12:25:49;;;;;;;69.70;24.10;;;;;;;;;;5097717;28;20035;-89
2021/12/26 12:31:20;;;;;;;110.85;37.22;;;;;;;;;;5116554;28;20038;-87
2021/12/26 12:34:02;;;;;;;130.52;43.75;;;;;;;;;;5116951;28;20027;-86
2021/12/26 12:36:28;;;;;;;;;;;;;;;;;;5116865;28;20134;-87
2021/12/26 12:38:56;;;;;;;91.57;30.52;;;;;;;;;;5117414;28;19935;-87
2021/12/26 12:41:28;;;;;;;128.02;46.63;;;;;;;;;;5117943;28;20035;-84
2021/12/26 12:44:30;;;;;;;86.45;34.10;;;;;;;;;;5117491;28;20032;-87
2021/12/26 12:46:58;;;;;;;153.75;61.42;;;;;;;;;;5035329;28;20092;-87
2021/12/26 12:49:42;;;;;;;192.52;81.05;;;;;;;;;;5038086;28;20041;-87
2021/12/26 12:52:09;;;;;;;378.52;153.63;;;;;;;;;;5038723;28;20140;-87
2021/12/26 12:54:35;;;;;;;218.50;86.53;;;;;;;;;;5038823;28;20032;-88
2021/12/26 12:57:06;;;;;;;201.10;80.82;;;;;;;;;;5022159;28;20093;-88
2021/12/26 12:59:38;;;;;;;171.70;70.00;;;;;;;;;;5038821;28;20045;-88
2021/12/26 13:02:06;;;;;;;32.47;18.58;;;;;;;;;;5038668;28;20064;-88
2021/12/26 13:04:42;;;;;;;129.40;50.03;;;;;;;;;;5038633;28;20431;-88
2021/12/26 13:07:09;;;;;;;114.30;50.35;;;;;;;;;;5022230;28;20041;-88
2021/12/26 13:09:36;;;;;;;140.43;62.13;;;;;;;;;;5038608;28;20029;-87
2021/12/26 13:12:12;;;;;;;84.43;39.65;;;;;;;;;;5038187;28;20033;-87
2021/12/26 13:14:39;;;;;;;62.40;31.85;;;;;;;;;;5038304;28;20113;-87
2021/12/26 13:17:25;;;;;;;51.60;25.63;;;;;;;;;;5038367;28;20029;-87
2021/12/26 13:19:56;;;;;;;93.97;42.15;;;;;;;;;;5028000;28;20056;-88
2021/12/26 13:22:23;;;;;;;118.20;49.15;;;;;;;;;;5119764;28;20061;-88
2021/12/26 13:24:49;;;;;;;86.47;37.45;;;;;;;;;;5120526;28;20462;-87
2021/12/26 13:27:22;;;;;;;87.80;42.00;;;;;;;;;;5120802;28;20020;-87
2021/12/26 13:32:52;;;;;;;82.45;39.00;;;;;;;;;;5120492;28;20059;-87
2021/12/26 13:35:19;;;;;;;126.68;48.72;;;;;;;;;;5119196;28;20299;-87
2021/12/26 13:37:45;;;;;;;74.50;26.73;;;;;;;;;;5103850;28;20015;-87
2021/12/26 13:40:12;;;;;;;73.78;26.75;;;;;;;;;;5120614;28;20054;-87
2021/12/26 13:42:39;;;;;;;103.18;32.28;;;;;;;;;;5119246;28;20016;-87
2021/12/26 13:45:06;;;;;;;99.07;35.95;;;;;;;;;;5120506;28;20102;-87
2021/12/26 13:47:43;;;;;;;248.20;73.32;;;;;;;;;;5119254;28;20038;-88
2021/12/26 13:50:14;;;;;;;166.48;55.38;;;;;;;;;;5118803;28;20104;-87
2021/12/26 13:52:40;;;;;;;179.77;61.50;;;;;;;;;;5119989;28;20035;-87
2021/12/26 13:55:07;;;;;;;84.55;32.28;;;;;;;;;;5119784;28;20598;-87
2021/12/26 13:57:33;;;;;;;106.50;33.88;;;;;;;;;;5119782;28;20019;-87
2021/12/26 14:00:36;;;;;;;85.18;26.90;;;;;;;;;;5120072;28;20041;-87
2021/12/26 14:03:03;;;;;;;64.05;22.15;;;;;;;;;;5119722;28;20106;-87
2021/12/26 14:05:29;;;;;;;87.72;27.65;;;;;;;;;;5120049;28;20027;-86
2021/12/26 14:08:01;;;;;;;30.38;13.95;;;;;;;;;;5120041;28;20318;-86
2021/12/26 14:10:27;;;;;;;78.60;26.55;;;;;;;;;;5119950;28;20111;-84
2021/12/26 14:12:58;;;;;;;187.27;51.17;;;;;;;;;;5119305;28;20115;-85
2021/12/26 14:15:34;;;;;;;105.85;30.77;;;;;;;;;;5119533;28;20032;-86
2021/12/26 14:18:06;;;;;;;179.10;50.47;;;;;;;;;;5119431;28;20012;-86
2021/12/26 14:20:50;;;;;;;279.33;83.93;;;;;;;;;;5119243;28;20042;-86
2021/12/26 14:23:21;;;;;;;140.48;43.53;;;;;;;;;;5119354;28;20035;-86
2021/12/26 14:25:48;;;;;;;154.07;46.67;;;;;;;;;;5118389;28;20023;-87
2021/12/26 14:28:18;;;;;;;180.20;53.88;;;;;;;;;;5119295;28;20030;-86
2021/12/26 14:30:45;;;;;;;444.40;134.05;;;;;;;;;;5118971;28;20337;-86
2021/12/26 14:33:12;;;;;;;120.93;41.60;;;;;;;;;;5119147;28;20020;-86
2021/12/26 14:35:38;;;;;;;342.23;113.13;;;;;;;;;;5118104;28;20015;-86
2021/12/26 14:38:15;;;;;;;166.75;57.83;;;;;;;;;;5118913;28;20019;-86
2021/12/26 14:40:51;;;;;;;190.15;68.03;;;;;;;;;;5118745;28;20055;-86
2021/12/26 14:43:17;;;;;;;209.35;73.13;;;;;;;;;;5118006;28;20019;-85
2021/12/26 14:46:09;;;;;;;229.10;76.95;;;;;;;;;;5118851;28;20028;-86
2021/12/26 14:48:37;;;;;;;276.80;92.68;;;;;;;;;;5115931;28;20035;-85
2021/12/26 14:51:20;;;;;;;216.18;77.00;;;;;;;;;;5117458;28;20092;-86
2021/12/26 14:53:56;;;;;;;199.13;76.57;;;;;;;;;;5118481;28;20057;-86
2021/12/26 14:56:23;;;;;;;241.23;92.88;;;;;;;;;;5118827;28;20046;-86
2021/12/26 14:58:51;;;;;;;163.63;60.55;;;;;;;;;;5118626;28;20019;-86
2021/12/26 15:01:35;;;;;;;357.55;130.18;;;;;;;;;;5117196;28;20038;-86
2021/12/26 15:04:08;;;;;;;57.13;27.27;;;;;;;;;;5118524;28;20110;-86
2021/12/26 15:06:45;;;;;;;119.22;52.58;;;;;;;;;;5117198;28;20147;-86
2021/12/26 15:09:31;;;;;;;111.85;48.72;;;;;;;;;;5118501;28;20286;-86
2021/12/26 15:11:57;;;;;;;81.18;38.58;;;;;;;;;;5118027;28;20061;-86
2021/12/26 15:14:26;;;;;;;107.30;47.22;;;;;;;;;;5118650;28;20026;-85
2021/12/26 15:16:52;;;;;;;143.88;53.53;;;;;;;;;;5118171;28;20026;-84